Krabi, Thailand

8:03 PM ICT on May 26, 2015 (GMT +0700)
Ao Nang, Krabi | | Change Station
CLOSE
Current Station
Personal Weather Station
Location: Ao Nang, Krabi
Elevation: 177 ft
Nearby Weather Stations

Elev 177 ft 8.05 °N, 98.84 °E | Updated 34 seconds ago

Light Rain
Light Rain
75.6 °F
Feels Like 75 °F
N
1.1
Wind Variable Wind from SW
Gusts 4.0 mph

Today
High -- | Low -- °F
--% Chance of Precip.
Yesterday
High -- | Low -- °F
Precip. -- in
6:04 AM 6:37 PM
First Quarter, 58% visible
Pressure 29.92 in
Visibility 4.3 miles
Clouds Scattered Clouds 1500 ft
Mostly Cloudy 10000 ft
Mostly Cloudy 30000 ft
Heat Index 75 °F
Dew Point 73 °F
Humidity 91%
Rainfall 0.49 in
Snow Depth Not available.
UV 0.0 out of 12
Pollen Not available.
Air Quality Not available.
Flu Activity Not available.
METAR VTSP 261230Z 28010KT 7000 -RA SCT015 BKN100 BKN300 24/22 Q1013 A2991 NOSIG

More Conditions Fewer Conditions

Pressure 29.92 in
Visibility 4.3 miles
Clouds Scattered Clouds 1500 ft
Mostly Cloudy 10000 ft
Mostly Cloudy 30000 ft
Heat Index 75 °F
Dew Point 73 °F
Humidity 91%
Rainfall 0.49 in
Snow Depth Not available.
UV 0.0 out of 12
Pollen Not available.
Air Quality Not available.
Flu Activity Not available.
METAR VTSP 261230Z 28010KT 7000 -RA SCT015 BKN100 BKN300 24/22 Q1013 A2991 NOSIG

More Conditions Fewer Conditions

10-Day Weather Forecast

Almanac

Astronomy

May. 26, 2015 Rise Set
Actual Time
Civil Twilight
Nautical Twilight
Astronomical Twilight
Moon
Length of Visible Light
Length of Day
Tomorrow will be .
, % of the Moon is Illuminated

Today's Extremes

Country Highs Country Lows

Community

WunderPhotos

Upload Photos

1,824,340 photos uploaded!

WunderBlogs® & News

Nearby

Air Quality

  Air Quality AQ Index Pollutant
Not available.

Snow Depth

Station Depth Elevation

Earthquake Activity

City Distance Mag. Time & Date
Minimum magnitude displayed is 2.5.

Coastal Water Temperatures

Place Temperature

Stations

Nearby Weather Stations

Station Location Temp. Windchill Dew Point Humidity Wind Precip. Elev Updated Type